Time;durP1;ratioP1;P1;durP2;ratioP2;P2;SDS_P1;SDS_P2;PMS_P1;PMS_P2;Temp;Humidity;BMP_temperature;BMP_pressure;BME280_temperature;BME280_humidity;BME280_pressure;Samples;Min_cycle;Max_cycle;Signal;HPM_P1;HPM_P2
2023/01/17 05:22:56;;;;;;;5.55;1.60;;;;;;;1.82;100.00;97539.06;5089260;28;20893;-65
2023/01/17 05:25:29;;;;;;;1.70;1.05;;;;;;;1.84;100.00;97533.66;5089880;28;20032;-66
2023/01/17 05:27:55;;;;;;;7.70;1.40;;;;;;;1.70;100.00;97539.75;5088846;28;20568;-66
2023/01/17 05:30:21;;;;;;;2.25;1.30;;;;;;;1.66;100.00;97544.53;5105062;22;20823;-67
2023/01/17 05:32:54;;;;;;;1.85;1.65;;;;;;;1.63;100.00;97542.28;5109834;28;20541;-67
2023/01/17 05:35:24;;;;;;;2.20;1.30;;;;;;;1.54;100.00;97546.81;5091145;28;20480;-67
2023/01/17 05:37:50;;;;;;;1.60;0.90;;;;;;;1.57;100.00;97543.03;5109745;28;20113;-68
2023/01/17 05:40:17;;;;;;;0.82;0.82;;;;;;;1.59;100.00;97546.28;5109456;28;20039;-67
2023/01/17 05:42:50;;;;;;;2.43;0.77;;;;;;;1.60;100.00;97550.50;5109321;28;20056;-67
2023/01/17 05:45:18;;;;;;;1.45;1.10;;;;;;;1.56;100.00;97551.88;5109859;28;20046;-66
2023/01/17 05:47:48;;;;;;;0.98;0.70;;;;;;;1.56;100.00;97539.56;5109730;28;20039;-67
2023/01/17 05:50:18;;;;;;;0.88;0.75;;;;;;;1.57;100.00;97538.59;5109714;28;20027;-67
2023/01/17 05:52:52;;;;;;;0.80;0.80;;;;;;;1.61;100.00;97539.03;5109916;28;20337;-68
2023/01/17 05:55:18;;;;;;;3.20;1.23;;;;;;;1.56;100.00;97529.06;5109727;28;20040;-67
2023/01/17 05:57:44;;;;;;;1.02;0.93;;;;;;;1.59;100.00;97533.97;5109429;28;20035;-68
2023/01/17 06:00:10;;;;;;;1.05;0.80;;;;;;;1.61;100.00;97525.91;5109506;28;20040;-67
2023/01/17 06:02:35;;;;;;;1.63;1.13;;;;;;;1.61;100.00;97520.66;5109115;28;20032;-66
2023/01/17 06:05:01;;;;;;;2.25;1.40;;;;;;;1.69;100.00;97517.91;5109510;28;20415;-66
2023/01/17 06:07:26;;;;;;;1.85;1.65;;;;;;;1.72;100.00;97517.56;5090841;28;20118;-66
2023/01/17 06:09:52;;;;;;;2.17;1.50;;;;;;;1.76;100.00;97513.59;5109621;28;20044;-66
2023/01/17 06:12:17;;;;;;;3.42;2.03;;;;;;;1.76;100.00;97513.59;5108530;28;20101;-65
2023/01/17 06:14:42;;;;;;;2.38;1.42;;;;;;;1.76;100.00;97518.84;5108846;28;20047;-66
2023/01/17 06:17:08;;;;;;;1.67;1.35;;;;;;;1.80;100.00;97519.28;5108556;28;20046;-66
2023/01/17 06:19:33;;;;;;;2.63;1.30;;;;;;;1.79;100.00;97518.47;5108718;28;20074;-66
2023/01/17 06:21:59;;;;;;;2.55;1.17;;;;;;;1.79;100.00;97523.72;5090404;28;20138;-67
2023/01/17 06:24:24;;;;;;;0.70;0.70;;;;;;;1.82;100.00;97528.59;5108493;28;20040;-67
2023/01/17 06:26:49;;;;;;;2.42;1.38;;;;;;;1.83;100.00;97522.34;5108648;28;20131;-66
2023/01/17 06:29:15;;;;;;;1.23;1.13;;;;;;;1.82;100.00;97522.53;5108468;28;20040;-67
2023/01/17 06:31:40;;;;;;;2.15;1.00;;;;;;;1.86;100.00;97524.59;5108545;28;20127;-66
2023/01/17 06:34:06;;;;;;;1.30;1.08;;;;;;;1.88;100.00;97527.03;5096260;28;20040;-67
2023/01/17 06:36:32;;;;;;;3.95;1.50;;;;;;;1.94;100.00;97522.88;5076806;28;20754;-67
2023/01/17 06:38:57;;;;;;;1.33;1.23;;;;;;;1.89;100.00;97516.38;5094423;28;20481;-67
2023/01/17 06:41:24;;;;;;;1.75;1.17;;;;;;;1.97;100.00;97518.06;5076354;28;20032;-66
2023/01/17 06:43:52;;;;;;;2.40;1.58;;;;;;;1.98;100.00;97516.25;5094503;28;20081;-66
2023/01/17 06:46:17;;;;;;;2.28;0.90;;;;;;;1.99;100.00;97510.00;5094863;28;20050;-66
2023/01/17 06:48:43;;;;;;;1.25;1.08;;;;;;;2.01;100.00;97518.50;5095106;28;20074;-67
2023/01/17 06:51:08;;;;;;;0.75;0.73;;;;;;;2.03;100.00;97519.16;5076286;28;20401;-67
2023/01/17 06:53:35;;;;;;;2.45;0.90;;;;;;;1.96;100.00;97528.75;5094779;28;20126;-67
2023/01/17 06:56:01;;;;;;;1.98;1.20;;;;;;;1.96;100.00;97529.56;5094442;28;20122;-66
2023/01/17 06:58:26;;;;;;;2.42;1.00;;;;;;;1.90;100.00;97533.75;5094761;28;20464;-66
2023/01/17 07:00:52;;;;;;;1.10;1.00;;;;;;;1.98;100.00;97516.25;5094732;28;20537;-66
2023/01/17 07:03:20;;;;;;;1.40;1.02;;;;;;;2.04;100.00;97520.78;5094373;28;20050;-66
2023/01/17 07:05:46;;;;;;;1.40;1.10;;;;;;;2.07;100.00;97515.13;5094389;28;20036;-66
2023/01/17 07:08:11;;;;;;;1.38;1.25;;;;;;;2.03;100.00;97513.91;5094368;28;20040;-66
2023/01/17 07:10:36;;;;;;;3.03;1.52;;;;;;;2.04;100.00;97505.84;5093644;28;20396;-56
2023/01/17 07:13:02;;;;;;;2.30;1.45;;;;;;;2.08;100.00;97506.25;5093878;28;20040;-59
2023/01/17 07:15:27;;;;;;;2.53;1.20;;;;;;;2.11;100.00;97496.22;5093872;28;20036;-57
2023/01/17 07:17:52;;;;;;;2.13;1.08;;;;;;;2.18;100.00;97496.28;5093397;28;20027;-59
2023/01/17 07:20:18;;;;;;;1.33;1.02;;;;;;;2.22;100.00;97486.19;5093887;28;20468;-67
2023/01/17 07:22:44;;;;;;;2.15;1.38;;;;;;;2.23;100.00;97485.22;5093470;28;20078;-67
2023/01/17 07:25:10;;;;;;;1.55;1.05;;;;;;;2.20;100.00;97486.38;5093475;28;20035;-67
2023/01/17 07:27:35;;;;;;;3.17;1.50;;;;;;;2.28;100.00;97475.78;5093032;28;20518;-67
2023/01/17 07:30:00;;;;;;;2.45;1.30;;;;;;;2.28;100.00;97475.78;5075272;28;20093;-67
2023/01/17 07:32:26;;;;;;;1.23;1.10;;;;;;;2.30;100.00;97473.75;5093076;28;20519;-66
2023/01/17 07:34:53;;;;;;;0.82;0.82;;;;;;;2.31;100.00;97480.63;5093319;28;20509;-67
2023/01/17 07:37:18;;;;;;;3.70;1.00;;;;;;;2.24;100.00;97476.34;5092835;28;20043;-68
2023/01/17 07:39:44;;;;;;;1.63;0.70;;;;;;;2.25;100.00;97484.00;5074642;28;20077;-67
2023/01/17 07:42:10;;;;;;;1.02;0.90;;;;;;;2.28;100.00;97493.31;5093135;28;20461;-67
2023/01/17 07:44:35;;;;;;;2.35;1.05;;;;;;;2.28;100.00;97486.28;5074076;28;20119;-66
2023/01/17 07:47:00;;;;;;;1.88;0.88;;;;;;;2.26;100.00;97498.78;5092999;28;20040;-67
2023/01/17 07:49:26;;;;;;;1.25;0.93;;;;;;;2.25;100.00;97497.16;5093008;28;20040;-66
2023/01/17 07:51:51;;;;;;;0.90;0.80;;;;;;;2.27;100.00;97496.97;5093486;28;20093;-66
2023/01/17 07:54:17;;;;;;;0.90;0.90;;;;;;;2.25;100.00;97497.16;5093989;28;20043;-66
2023/01/17 07:56:45;;;;;;;1.25;1.08;;;;;;;2.29;100.00;97487.91;5092734;28;20071;-66
2023/01/17 07:59:11;;;;;;;1.58;1.30;;;;;;;2.31;100.00;97488.53;5092579;28;20076;-67
2023/01/17 08:01:37;;;;;;;1.30;1.08;;;;;;;2.36;100.00;97483.53;5092685;28;20075;-66
2023/01/17 08:04:02;;;;;;;2.15;1.23;;;;;;;2.40;100.00;97478.69;5092644;28;20036;-66
2023/01/17 08:06:28;;;;;;;1.25;1.05;;;;;;;2.38;100.00;97468.38;5074636;28;20424;-66
2023/01/17 08:08:57;;;;;;;2.42;1.30;;;;;;;2.39;100.00;97472.63;5074202;28;20131;-67
2023/01/17 08:11:23;;;;;;;1.23;1.13;;;;;;;2.33;100.00;97468.13;5092462;28;20032;-66
2023/01/17 08:13:49;;;;;;;7.07;1.70;;;;;;;2.43;100.00;97486.22;5092549;28;20404;-66
2023/01/17 08:16:15;;;;;;;2.20;1.20;;;;;;;2.43;100.00;97488.84;5092563;28;20059;-66
2023/01/17 08:18:40;;;;;;;0.90;0.90;;;;;;;2.47;100.00;97490.06;5090844;28;20531;-66
2023/01/17 08:21:13;;;;;;;1.02;0.85;;;;;;;2.49;100.00;97489.91;5092401;28;20040;-66
2023/01/17 08:23:39;;;;;;;3.20;1.38;;;;;;;2.51;100.00;97491.34;5093347;28;20032;-66
2023/01/17 08:26:04;;;;;;;2.92;1.25;;;;;;;2.51;100.00;97495.78;5092669;28;20100;-64
2023/01/17 08:28:30;;;;;;;3.72;1.42;;;;;;;2.57;99.88;97489.78;5092087;28;20070;-65
2023/01/17 08:30:55;;;;;;;1.67;1.02;;;;;;;2.58;99.61;97492.19;5092408;28;20036;-65
2023/01/17 08:33:21;;;;;;;3.65;1.10;;;;;;;2.62;98.55;97488.19;5092633;28;20028;-65
2023/01/17 08:35:51;;;;;;;1.25;1.00;;;;;;;2.62;97.72;97487.38;5074778;28;20519;-66
2023/01/17 08:38:16;;;;;;;0.73;0.73;;;;;;;2.66;96.58;97488.63;5073979;28;20405;-65
2023/01/17 08:40:42;;;;;;;3.47;1.45;;;;;;;2.68;96.19;97489.25;5092443;28;20058;-65
2023/01/17 08:43:07;;;;;;;3.20;1.30;;;;;;;2.67;96.17;97474.47;5092694;28;20089;-66
2023/01/17 08:45:32;;;;;;;3.03;1.17;;;;;;;2.71;95.54;97470.47;5092256;28;20519;-66
2023/01/17 08:47:58;;;;;;;3.03;1.10;;;;;;;2.81;93.97;97478.84;5092027;28;20093;-66
2023/01/17 08:50:24;;;;;;;1.15;0.90;;;;;;;2.87;92.27;97472.84;5090653;28;20043;-66
2023/01/17 08:52:52;;;;;;;2.35;0.90;;;;;;;2.97;90.89;97473.28;5092195;28;20029;-66
2023/01/17 08:55:18;;;;;;;1.30;0.80;;;;;;;3.05;89.72;97463.63;5091913;28;20043;-66
2023/01/17 08:57:43;;;;;;;0.63;0.57;;;;;;;3.13;85.71;97463.47;5073435;28;20327;-66
2023/01/17 09:00:09;;;;;;;1.88;1.10;;;;;;;3.18;82.06;97454.00;5090719;28;20404;-66
2023/01/17 09:02:35;;;;;;;2.67;0.80;;;;;;;3.31;81.49;97457.69;5091871;28;20408;-65
2023/01/17 09:05:00;;;;;;;0.57;0.57;;;;;;;3.35;82.20;97462.38;5091686;28;20040;-65
2023/01/17 09:07:27;;;;;;;1.23;0.70;;;;;;;3.41;80.60;97460.81;5091413;28;20109;-65
2023/01/17 09:09:52;;;;;;;1.40;1.00;;;;;;;3.53;79.38;97459.25;5091721;28;20040;-66
2023/01/17 09:12:21;;;;;;;1.45;0.73;;;;;;;3.83;78.46;97461.56;5074813;28;20515;-66
2023/01/17 09:14:46;;;;;;;0.90;0.90;;;;;;;4.13;75.31;97462.06;5092504;28;20038;-66
2023/01/17 09:17:12;;;;;;;2.25;0.70;;;;;;;4.36;73.78;97459.84;5092273;28;20032;-65
2023/01/17 09:19:40;;;;;;;0.82;0.80;;;;;;;4.54;72.29;97454.00;5074297;28;20043;-66
2023/01/17 09:22:06;;;;;;;1.90;0.70;;;;;;;4.72;71.99;97456.03;5092220;28;20093;-66
2023/01/17 09:24:32;;;;;;;0.90;0.65;;;;;;;4.81;71.08;97442.41;5092899;28;20039;-66
2023/01/17 09:26:57;;;;;;;1.17;0.77;;;;;;;4.89;70.17;97449.34;5092487;28;20035;-66
2023/01/17 09:29:23;;;;;;;1.10;0.70;;;;;;;5.10;68.39;97450.91;5073978;28;20047;-66
2023/01/17 09:31:48;;;;;;;2.35;0.90;;;;;;;5.12;68.72;97449.69;5091850;28;20036;-66
2023/01/17 09:34:14;;;;;;;2.50;0.95;;;;;;;5.32;68.41;97451.47;5092459;28;20044;-66
2023/01/17 09:36:40;;;;;;;0.73;0.60;;;;;;;5.63;67.13;97456.84;5092108;28;20040;-67
2023/01/17 09:39:07;;;;;;;0.75;0.75;;;;;;;5.96;65.47;97456.72;5074528;28;20042;-66
2023/01/17 09:41:55;;;;;;;1.10;1.00;;;;;;;6.13;63.27;97458.88;5093175;28;20036;-66
2023/01/17 09:44:26;;;;;;;1.20;0.50;;;;;;;6.49;62.51;97445.00;5092985;28;20081;-67
2023/01/17 09:47:01;;;;;;;1.77;0.70;;;;;;;6.82;60.40;97451.88;5092414;28;20032;-66
2023/01/17 09:49:41;;;;;;;0.90;0.57;;;;;;;6.88;58.86;97456.31;5092069;28;20067;-67
2023/01/17 09:52:10;;;;;;;0.50;0.50;;;;;;;7.21;57.35;97443.56;5092523;28;20365;-66
2023/01/17 09:54:39;;;;;;;0.88;0.63;;;;;;;7.11;58.42;97448.56;5091912;28;20082;-66
2023/01/17 09:57:07;;;;;;;1.67;0.60;;;;;;;6.74;57.63;97451.13;5092269;28;20511;-66
2023/01/17 09:59:32;;;;;;;;;;;;;;;7.08;57.77;97449.00;5092122;28;20089;-67
2023/01/17 10:02:24;;;;;;;0.85;0.73;;;;;;;6.88;57.84;97448.38;5092233;28;19915;-66
2023/01/17 10:05:05;;;;;;;0.47;0.43;;;;;;;7.22;57.35;97444.38;5077762;28;20074;-67
2023/01/17 10:07:48;;;;;;;0.45;0.40;;;;;;;7.64;56.60;97442.69;5091885;28;20118;-67
2023/01/17 10:10:33;;;;;;;0.40;0.40;;;;;;;7.99;54.22;97444.69;5095485;28;20118;-67
2023/01/17 10:13:23;;;;;;;1.35;0.75;;;;;;;8.07;53.47;97442.53;5095128;28;20119;-67
2023/01/17 10:16:00;;;;;;;1.15;0.47;;;;;;;7.90;54.08;97436.25;5096594;28;20068;-67
2023/01/17 10:19:07;;;;;;;1.25;0.82;;;;;;;8.29;54.05;97437.53;5095879;28;20042;-67
2023/01/17 10:21:49;;;;;;;1.00;0.73;;;;;;;8.82;52.98;97430.63;5094651;28;20055;-67
2023/01/17 10:24:43;;;;;;;0.68;0.60;;;;;;;8.60;52.88;97430.34;5094869;28;20039;-67
2023/01/17 10:27:20;;;;;;;0.38;0.35;;;;;;;8.69;53.19;97429.81;5094566;28;20043;-67
2023/01/17 10:29:48;;;;;;;1.10;0.55;;;;;;;9.25;52.25;97424.94;5094724;28;20474;-68
2023/01/17 10:32:14;;;;;;;1.10;0.88;;;;;;;9.57;51.31;97422.69;5094140;28;20036;-67
2023/01/17 10:34:49;;;;;;;0.50;0.50;;;;;;;10.18;49.60;97409.78;5094194;28;20063;-67
2023/01/17 10:37:37;;;;;;;0.90;0.60;;;;;;;10.47;47.97;97405.22;5094309;28;20374;-67
2023/01/17 10:40:18;;;;;;;1.08;0.60;;;;;;;10.81;47.62;97395.38;5076413;28;20508;-67
2023/01/17 10:42:59;;;;;;;1.20;0.68;;;;;;;10.85;47.15;97396.50;5095142;28;20389;-67
2023/01/17 10:45:27;;;;;;;1.48;0.90;;;;;;;10.74;48.21;97392.88;5094331;28;20097;-68
2023/01/17 10:48:20;;;;;;;1.77;0.70;;;;;;;10.72;48.66;97399.50;5094178;28;20044;-67
2023/01/17 10:50:59;;;;;;;1.92;0.57;;;;;;;11.26;46.46;97392.56;5094033;28;20051;-67
2023/01/17 10:53:44;;;;;;;2.20;0.93;;;;;;;11.08;46.57;97379.50;5094292;28;20039;-67
2023/01/17 10:56:14;;;;;;;1.95;0.80;;;;;;;11.47;45.81;97377.63;5094139;28;20115;-67
2023/01/17 10:58:39;;;;;;;0.60;0.60;;;;;;;11.92;45.11;97380.03;5093599;28;20040;-67
2023/01/17 11:01:18;;;;;;;1.63;0.70;;;;;;;12.31;43.99;97373.72;5093867;28;20039;-67
2023/01/17 11:03:49;;;;;;;1.00;0.70;;;;;;;12.07;43.21;97374.06;5093812;28;20408;-67
2023/01/17 11:06:26;;;;;;;0.73;0.50;;;;;;;11.64;44.03;97375.69;5093788;28;20101;-67
2023/01/17 11:08:56;;;;;;;0.68;0.50;;;;;;;11.82;43.97;97366.59;5093490;28;20036;-67
2023/01/17 11:11:32;;;;;;;1.27;0.40;;;;;;;12.95;41.86;97366.47;5093667;28;20473;-67
2023/01/17 11:14:00;;;;;;;0.85;0.65;;;;;;;13.29;40.39;97356.25;5093679;28;20560;-67
2023/01/17 11:16:32;;;;;;;0.43;0.38;;;;;;;13.14;41.69;97361.50;5093954;28;20445;-67
2023/01/17 11:19:24;;;;;;;0.28;0.22;;;;;;;13.29;41.30;97348.22;5093644;28;20162;-66
2023/01/17 11:21:57;;;;;;;0.60;0.52;;;;;;;13.54;40.59;97349.41;5093845;28;20358;-67
2023/01/17 11:24:47;;;;;;;0.70;0.55;;;;;;;14.04;39.01;97329.22;5093628;28;20162;-67
2023/01/17 11:27:25;;;;;;;0.60;0.40;;;;;;;13.46;39.81;97336.56;5093169;28;20044;-66
2023/01/17 11:30:09;;;;;;;;;;;;;;;13.34;40.06;97341.31;5094026;28;20089;-66
2023/01/17 11:32:35;;;;;;;0.68;0.45;;;;;;;13.69;38.76;97336.09;5095127;28;19916;-66
2023/01/17 11:35:13;;;;;;;0.30;0.30;;;;;;;13.51;39.14;97329.34;5093293;28;20036;-66
2023/01/17 11:37:48;;;;;;;1.02;0.50;;;;;;;12.88;39.57;97328.50;5074884;28;20139;-65
2023/01/17 11:40:14;;;;;;;0.70;0.55;;;;;;;12.58;39.23;97314.94;5093048;28;20036;-64
2023/01/17 11:42:39;;;;;;;1.17;0.32;;;;;;;11.87;42.42;97320.53;5074981;28;20036;-65
2023/01/17 11:45:25;;;;;;;1.15;0.60;;;;;;;11.21;44.82;97304.56;5093036;28;20047;-65
2023/01/17 11:48:12;;;;;;;0.50;0.50;;;;;;;11.11;44.57;97301.78;5092642;28;20036;-65
2023/01/17 11:50:45;;;;;;;0.40;0.40;;;;;;;11.16;43.67;97293.84;5092865;28;20042;-65
2023/01/17 11:53:19;;;;;;;0.85;0.50;;;;;;;11.95;42.92;97285.38;5093000;28;20036;-65
2023/01/17 11:56:11;;;;;;;0.98;0.50;;;;;;;12.69;41.10;97281.91;5092769;28;20062;-66
2023/01/17 11:58:40;;;;;;;0.60;0.52;;;;;;;12.30;41.04;97266.16;5078344;28;20048;-66
2023/01/17 12:01:26;;;;;;;0.57;0.40;;;;;;;13.07;40.49;97270.06;5092839;28;20370;-67
2023/01/17 12:04:09;;;;;;;0.77;0.60;;;;;;;12.40;37.63;97265.44;5092799;28;20444;-66
2023/01/17 12:06:37;;;;;;;0.88;0.43;;;;;;;12.19;37.82;97267.97;5092822;28;20374;-66
2023/01/17 12:09:21;;;;;;;0.63;0.50;;;;;;;12.70;37.66;97268.28;5092374;28;20031;-66
2023/01/17 12:15:08;;;;;;;0.30;0.30;;;;;;;12.68;35.20;97238.38;5074388;28;20043;-66
2023/01/17 12:17:51;;;;;;;0.43;0.40;;;;;;;13.22;35.29;97235.41;5092327;28;20076;-66
2023/01/17 12:20:26;;;;;;;0.35;0.22;;;;;;;13.14;34.73;97224.41;5092452;28;20032;-66
2023/01/17 12:23:15;;;;;;;0.43;0.28;;;;;;;12.52;37.33;97217.19;5092452;28;20028;-66
2023/01/17 12:25:47;;;;;;;0.75;0.40;;;;;;;12.60;37.77;97206.03;5092379;28;20500;-67
2023/01/17 12:28:12;;;;;;;0.45;0.45;;;;;;;12.40;37.23;97201.38;5093149;28;20047;-66
2023/01/17 12:30:56;;;;;;;0.73;0.22;;;;;;;11.79;38.68;97201.72;5091711;28;20435;-67
2023/01/17 12:33:42;;;;;;;0.20;0.20;;;;;;;11.61;38.63;97199.44;5092318;28;20101;-66
2023/01/17 12:36:37;;;;;;;0.35;0.25;;;;;;;11.27;38.70;97194.31;5092183;28;20094;-66
2023/01/17 12:39:10;;;;;;;2.55;0.60;;;;;;;10.90;39.07;97186.22;5085663;28;20037;-66
2023/01/17 12:41:52;;;;;;;0.20;0.20;;;;;;;10.82;38.89;97181.31;5080911;28;20392;-66
2023/01/17 12:44:22;;;;;;;1.00;0.30;;;;;;;10.74;38.14;97173.75;5082405;28;20032;-66
2023/01/17 12:47:02;;;;;;;0.20;0.20;;;;;;;10.74;38.72;97174.56;5080878;28;20086;-66
2023/01/17 12:49:51;;;;;;;0.40;0.40;;;;;;;10.87;37.29;97168.88;5080581;28;20116;-66
2023/01/17 12:52:56;;;;;;;0.50;0.20;;;;;;;10.61;36.54;97169.63;5082033;28;20036;-64
2023/01/17 12:55:33;;;;;;;0.47;0.20;;;;;;;9.75;38.32;97167.34;5051744;28;20052;-65
2023/01/17 12:58:01;;;;;;;0.40;0.17;;;;;;;9.40;39.22;97174.75;5080097;28;20047;-67
2023/01/17 13:00:28;;;;;;;;;;;;;;;9.17;40.15;97176.47;5062810;28;20508;-67
2023/01/17 13:03:11;;;;;;;0.20;0.20;;;;;;;8.77;40.11;97176.53;5081143;28;19989;-65
2023/01/17 13:05:45;;;;;;;0.30;0.30;;;;;;;8.39;40.45;97171.75;5082058;28;20035;-65
2023/01/17 13:08:37;;;;;;;0.47;0.40;;;;;;;8.26;41.15;97172.00;5080751;28;20078;-66
2023/01/17 13:11:09;;;;;;;0.20;0.20;;;;;;;8.01;42.15;97174.88;5082269;28;20036;-65
2023/01/17 13:13:35;;;;;;;2.05;0.40;;;;;;;7.92;43.44;97178.94;5081506;28;20032;-66
2023/01/17 13:16:11;;;;;;;0.20;0.20;;;;;;;7.65;44.16;97178.56;5080071;28;20048;-66
2023/01/17 13:18:45;;;;;;;0.60;0.30;;;;;;;7.65;43.63;97181.22;5080356;28;20024;-67
2023/01/17 13:21:29;;;;;;;0.20;0.20;;;;;;;7.54;44.31;97182.81;5080779;28;20037;-66
2023/01/17 13:24:11;;;;;;;0.22;0.22;;;;;;;7.44;44.70;97187.88;5081306;28;20086;-67
2023/01/17 13:27:02;;;;;;;0.38;0.35;;;;;;;7.30;44.93;97182.78;5064036;28;20466;-66
2023/01/17 13:29:49;;;;;;;0.40;0.40;;;;;;;7.27;45.42;97180.56;5080199;28;20028;-67
2023/01/17 13:32:44;;;;;;;0.30;0.30;;;;;;;7.24;45.68;97173.09;5081155;28;20043;-65
2023/01/17 13:35:21;;;;;;;0.90;0.70;;;;;;;7.19;46.32;97174.78;5063968;28;20820;-65
2023/01/17 13:37:47;;;;;;;;;;;;;;;7.08;47.81;97174.50;5080337;28;20044;-65
2023/01/17 13:41:03;;;;;;;2.03;0.43;;;;;;;7.01;48.19;97173.81;5081080;28;19916;-65
2023/01/17 13:43:34;;;;;;;1.05;0.70;;;;;;;7.04;49.65;97175.19;5030848;28;20044;-66
2023/01/17 13:46:02;;;;;;;1.83;0.43;;;;;;;6.91;48.54;97170.91;5084098;28;20050;-65
2023/01/17 13:48:30;;;;;;;0.85;0.47;;;;;;;6.87;48.04;97164.44;5083926;28;20395;-66
2023/01/17 13:50:58;;;;;;;;;;;;;;;6.83;47.59;97181.78;5085253;28;20036;-65
2023/01/17 13:53:33;;;;;;;1.50;0.73;;;;;;;6.71;47.12;97179.06;5087093;28;19919;-66
2023/01/17 13:56:13;;;;;;;0.73;0.40;;;;;;;6.69;46.59;97169.75;5085892;28;20470;-65
2023/01/17 13:58:54;;;;;;;0.35;0.35;;;;;;;6.64;48.28;97170.41;5067399;28;20060;-65
2023/01/17 14:01:22;;;;;;;1.75;0.77;;;;;;;6.59;48.16;97170.28;5067464;28;20032;-68
2023/01/17 14:03:47;;;;;;;0.82;0.50;;;;;;;6.63;47.26;97174.09;5083997;28;20088;-64
2023/01/17 14:06:34;;;;;;;0.30;0.30;;;;;;;6.55;48.25;97166.47;5084908;28;20536;-66
2023/01/17 14:09:28;;;;;;;0.52;0.40;;;;;;;6.53;48.15;97163.25;5085160;28;20105;-65
2023/01/17 14:12:06;;;;;;;1.10;0.60;;;;;;;6.53;48.21;97163.25;5087400;28;20508;-65
2023/01/17 14:14:55;;;;;;;0.32;0.32;;;;;;;6.28;48.01;97170.44;5095212;28;20040;-66
2023/01/17 14:17:21;;;;;;;1.08;0.52;;;;;;;6.29;48.33;97172.06;5094543;28;20042;-66
2023/01/17 14:20:02;;;;;;;0.63;0.50;;;;;;;6.32;47.93;97182.97;5094777;28;20105;-65
2023/01/17 14:22:34;;;;;;;0.25;0.25;;;;;;;6.32;47.92;97187.47;5094824;28;20052;-66
2023/01/17 14:25:08;;;;;;;0.43;0.40;;;;;;;6.14;47.77;97185.66;5059640;28;20054;-65
2023/01/17 14:27:43;;;;;;;0.80;0.57;;;;;;;6.17;48.85;97186.00;5094107;28;20043;-64
2023/01/17 14:30:23;;;;;;;1.65;0.50;;;;;;;6.12;49.26;97185.84;5094538;28;20043;-66
2023/01/17 14:33:21;;;;;;;0.30;0.30;;;;;;;6.13;49.30;97194.56;5094521;28;20078;-66
2023/01/17 14:35:54;;;;;;;0.40;0.40;;;;;;;6.08;48.50;97189.97;5094384;28;20042;-66
2023/01/17 14:38:22;;;;;;;1.27;0.43;;;;;;;6.03;48.75;97181.88;5094127;28;20036;-67
2023/01/17 14:40:50;;;;;;;;;;;;;;;6.00;49.27;97184.97;5094896;28;20032;-66
2023/01/17 14:43:21;;;;;;;1.33;0.52;;;;;;;6.06;49.23;97180.63;5094439;28;19915;-66
2023/01/17 14:45:47;;;;;;;0.25;0.25;;;;;;;6.06;49.59;97180.63;5094359;28;20552;-66
2023/01/17 14:48:21;;;;;;;0.35;0.32;;;;;;;5.97;48.72;97177.47;5093901;28;20123;-65
2023/01/17 14:50:49;;;;;;;0.50;0.43;;;;;;;6.02;48.87;97182.09;5075917;28;20036;-66
2023/01/17 14:53:17;;;;;;;0.30;0.30;;;;;;;5.94;48.71;97177.91;5094140;28;20400;-67
2023/01/17 14:55:46;;;;;;;0.40;0.40;;;;;;;5.86;49.08;97180.78;5094029;28;20427;-66
2023/01/17 14:58:23;;;;;;;0.30;0.30;;;;;;;5.93;48.60;97179.75;5093736;28;20484;-65
2023/01/17 15:00:52;;;;;;;1.30;0.45;;;;;;;5.94;48.43;97183.19;5093963;28;20098;-66
2023/01/17 15:03:17;;;;;;;0.47;0.47;;;;;;;5.86;49.12;97188.72;5094021;28;20503;-64
2023/01/17 15:05:48;;;;;;;0.63;0.40;;;;;;;5.78;49.73;97194.28;5094041;28;20040;-66
2023/01/17 15:08:18;;;;;;;0.25;0.25;;;;;;;5.75;48.67;97190.25;5093548;28;20481;-64
2023/01/17 15:11:04;;;;;;;0.38;0.38;;;;;;;5.64;49.75;97185.66;5093894;28;20046;-63
2023/01/17 15:13:36;;;;;;;0.73;0.60;;;;;;;5.57;49.30;97195.47;5076266;28;20047;-64
2023/01/17 15:16:16;;;;;;;0.30;0.30;;;;;;;5.63;49.85;97190.13;5093607;28;20409;-65
2023/01/17 15:18:42;;;;;;;0.30;0.30;;;;;;;5.65;49.06;97188.06;5093364;28;20044;-65
2023/01/17 15:21:13;;;;;;;0.55;0.47;;;;;;;5.61;49.58;97172.91;5093577;28;20032;-65
2023/01/17 15:23:44;;;;;;;0.30;0.30;;;;;;;5.64;49.44;97183.00;5059105;28;20051;-65
2023/01/17 15:26:13;;;;;;;0.22;0.22;;;;;;;5.52;50.20;97174.16;5093765;28;20540;-65
2023/01/17 15:28:40;;;;;;;0.40;0.40;;;;;;;5.51;51.11;97176.00;5093170;28;20058;-65
2023/01/17 15:31:10;;;;;;;1.52;0.63;;;;;;;5.50;51.21;97177.03;5093101;28;20040;-65
2023/01/17 15:33:39;;;;;;;0.90;0.50;;;;;;;5.48;51.70;97178.25;5093506;28;20036;-64
2023/01/17 15:36:15;;;;;;;1.65;0.40;;;;;;;5.47;52.25;97176.63;5093592;28;20395;-67
2023/01/17 15:38:58;;;;;;;0.82;0.50;;;;;;;5.41;52.85;97175.66;5094432;28;20075;-65
2023/01/17 15:41:29;;;;;;;1.23;0.60;;;;;;;5.41;53.38;97167.75;5076004;28;20374;-65
2023/01/17 15:43:57;;;;;;;0.88;0.50;;;;;;;5.13;53.45;97165.50;5093492;28;20055;-65
2023/01/17 15:46:29;;;;;;;0.55;0.50;;;;;;;5.14;53.83;97188.25;5093687;28;20069;-65
2023/01/17 15:49:18;;;;;;;0.55;0.47;;;;;;;5.15;53.94;97184.56;5058726;28;20382;-65
2023/01/17 15:51:53;;;;;;;0.60;0.60;;;;;;;5.19;53.63;97191.06;5093038;28;20032;-65
2023/01/17 15:54:25;;;;;;;0.45;0.45;;;;;;;5.11;53.70;97189.47;5097269;28;20036;-66
2023/01/17 15:57:04;;;;;;;1.15;0.90;;;;;;;5.01;54.88;97191.75;5093483;28;20036;-66
2023/01/17 15:59:32;;;;;;;1.15;0.60;;;;;;;5.08;54.45;97192.53;5093034;28;20039;-65
2023/01/17 16:01:57;;;;;;;0.60;0.45;;;;;;;5.08;54.93;97189.88;5093075;28;20027;-65
2023/01/17 16:04:36;;;;;;;0.70;0.65;;;;;;;4.91;54.86;97191.44;5093094;28;20028;-66
2023/01/17 16:07:28;;;;;;;0.55;0.55;;;;;;;4.92;55.19;97195.69;5092088;28;20101;-65
2023/01/17 16:10:01;;;;;;;2.58;0.65;;;;;;;4.92;55.18;97202.78;5092132;28;20062;-65
2023/01/17 16:12:26;;;;;;;0.73;0.35;;;;;;;4.95;54.92;97200.53;5092888;28;20036;-65
2023/01/17 16:14:51;;;;;;;0.68;0.47;;;;;;;4.83;56.15;97196.94;5092570;28;20039;-65
2023/01/17 16:17:17;;;;;;;0.47;0.47;;;;;;;4.74;56.40;97195.56;5092644;28;20036;-65
2023/01/17 16:19:42;;;;;;;0.50;0.47;;;;;;;4.83;56.13;97196.94;5092862;28;20036;-66
2023/01/17 16:22:08;;;;;;;1.33;0.40;;;;;;;4.73;55.75;97202.66;5074471;28;20435;-65
2023/01/17 16:24:34;;;;;;;0.57;0.57;;;;;;;4.77;56.19;97197.78;5092623;28;20028;-65
2023/01/17 16:26:59;;;;;;;1.17;0.50;;;;;;;4.78;55.67;97202.03;5092036;28;20396;-65
2023/01/17 16:29:24;;;;;;;0.47;0.47;;;;;;;4.73;56.30;97196.59;5092085;28;20036;-64
2023/01/17 16:31:50;;;;;;;2.63;0.82;;;;;;;4.71;56.45;97194.16;5092034;28;20473;-65
2023/01/17 16:34:15;;;;;;;1.02;0.70;;;;;;;4.68;57.06;97188.50;5074094;28;20031;-66
2023/01/17 16:36:41;;;;;;;0.50;0.50;;;;;;;4.69;56.49;97190.09;5092255;28;20105;-65
2023/01/17 16:39:06;;;;;;;1.40;0.80;;;;;;;4.73;56.57;97189.47;5092211;28;20063;-65
2023/01/17 16:41:32;;;;;;;0.35;0.35;;;;;;;4.69;56.84;97184.81;5092106;28;20472;-64
2023/01/17 16:44:02;;;;;;;0.77;0.50;;;;;;;4.68;56.65;97184.03;5092194;28;20055;-64
2023/01/17 16:46:28;;;;;;;0.60;0.50;;;;;;;4.65;56.71;97186.28;5074170;28;20032;-64
2023/01/17 16:48:54;;;;;;;0.95;0.80;;;;;;;4.68;56.85;97189.28;5092064;28;20446;-64
2023/01/17 16:51:20;;;;;;;0.50;0.50;;;;;;;4.68;57.66;97188.50;5073710;28;20501;-64
2023/01/17 16:53:45;;;;;;;1.55;0.60;;;;;;;4.58;57.42;97183.69;5091812;28;20036;-64
2023/01/17 16:56:15;;;;;;;1.45;0.80;;;;;;;4.58;57.32;97178.41;5091830;28;20485;-65
2023/01/17 16:58:41;;;;;;;0.70;0.70;;;;;;;4.56;57.98;97183.06;5091507;28;20036;-64
2023/01/17 17:01:14;;;;;;;3.28;0.95;;;;;;;4.54;57.76;97177.19;5091607;28;20040;-65
2023/01/17 17:03:41;;;;;;;1.77;0.57;;;;;;;4.47;57.86;97174.59;5091751;28;20034;-65
2023/01/17 17:06:07;;;;;;;0.60;0.57;;;;;;;4.42;58.17;97184.94;5091668;28;20103;-66
2023/01/17 17:08:34;;;;;;;0.55;0.55;;;;;;;4.43;58.25;97186.53;5091361;28;20484;-66
2023/01/17 17:11:17;;;;;;;3.03;0.88;;;;;;;4.43;58.45;97188.38;5091477;28;20138;-66
2023/01/17 17:13:45;;;;;;;0.70;0.70;;;;;;;4.46;58.05;97185.34;5091608;28;20417;-63
2023/01/17 17:16:13;;;;;;;0.63;0.60;;;;;;;4.43;58.52;97183.91;5091740;28;20020;-66
2023/01/17 17:18:39;;;;;;;1.85;0.75;;;;;;;4.26;59.22;97186.22;5091226;28;20043;-66
2023/01/17 17:21:04;;;;;;;0.88;0.77;;;;;;;4.29;59.19;97188.41;5091532;28;20024;-66
2023/01/17 17:23:30;;;;;;;4.40;0.75;;;;;;;4.27;58.91;97185.19;5073400;28;20032;-66
2023/01/17 17:25:56;;;;;;;1.50;0.85;;;;;;;4.32;59.17;97205.66;5091405;28;20350;-66